Time;durP1;ratioP1;P1;durP2;ratioP2;P2;SDS_P1;SDS_P2;PMS_P1;PMS_P2;Temp;Humidity;BMP_temperature;BMP_pressure;BME280_temperature;BME280_humidity;BME280_pressure;Samples;Min_cycle;Max_cycle;Signal;HPM_P1;HPM_P2
2023/05/14 00:03:41;;;;;;;4.22;2.25;;;;;;;;;;8189595;28;20105;-71
2023/05/14 00:07:41;;;;;;;3.13;2.50;;;;;;;;;;8206802;28;20027;-72
2023/05/14 00:11:41;;;;;;;5.60;2.72;;;;;;;;;;8189462;28;21255;-71
2023/05/14 00:15:41;;;;;;;2.38;2.17;;;;;;;;;;8181051;28;20809;-72
2023/05/14 00:19:42;;;;;;;2.88;2.00;;;;;;;;;;8159396;28;20085;-71
2023/05/14 00:23:42;;;;;;;3.88;2.60;;;;;;;;;;8157923;28;20031;-71
2023/05/14 00:27:42;;;;;;;5.15;2.50;;;;;;;;;;8155297;28;20034;-71
2023/05/14 00:31:42;;;;;;;5.50;3.20;;;;;;;;;;8154601;28;20070;-71
2023/05/14 00:35:42;;;;;;;3.72;2.90;;;;;;;;;;8162046;28;20063;-72
2023/05/14 00:39:43;;;;;;;3.20;2.90;;;;;;;;;;8154679;28;20023;-72
2023/05/14 00:43:43;;;;;;;3.47;3.07;;;;;;;;;;8170471;28;20031;-71
2023/05/14 00:47:43;;;;;;;5.22;3.47;;;;;;;;;;8154291;28;20301;-71
2023/05/14 00:51:45;;;;;;;6.95;4.82;;;;;;;;;;8155221;28;20709;-71
2023/05/14 00:55:47;;;;;;;8.45;3.63;;;;;;;;;;8161259;29;20483;-71
2023/05/14 00:59:47;;;;;;;6.75;4.05;;;;;;;;;;8164513;28;20102;-71
2023/05/14 01:03:47;;;;;;;6.63;3.60;;;;;;;;;;8160084;28;20035;-71
2023/05/14 01:07:55;;;;;;;3.57;3.20;;;;;;;;;;8154268;28;20271;-71
2023/05/14 01:12:01;;;;;;;3.70;3.35;;;;;;;;;;8155729;28;20938;-71
2023/05/14 01:16:02;;;;;;;5.22;3.00;;;;;;;;;;8162309;28;20023;-71
2023/05/14 01:20:03;;;;;;;3.95;3.30;;;;;;;;;;8152735;28;20038;-71
2023/05/14 01:24:03;;;;;;;4.22;2.65;;;;;;;;;;8149886;28;20027;-71
2023/05/14 01:28:11;;;;;;;3.33;2.73;;;;;;;;;;8149791;28;20074;-71
2023/05/14 01:32:12;;;;;;;3.10;2.80;;;;;;;;;;8153243;28;20299;-71
2023/05/14 01:36:12;;;;;;;4.53;2.67;;;;;;;;;;8153885;28;20031;-71
2023/05/14 01:40:13;;;;;;;3.30;3.00;;;;;;;;;;8159787;28;21051;-71
2023/05/14 01:44:13;;;;;;;7.50;3.33;;;;;;;;;;8154258;28;20727;-71
2023/05/14 01:48:13;;;;;;;6.88;3.97;;;;;;;;;;8151750;28;20066;-71
2023/05/14 01:52:13;;;;;;;3.78;3.47;;;;;;;;;;8153364;28;20996;-71
2023/05/14 01:56:14;;;;;;;3.33;2.72;;;;;;;;;;8158063;28;20031;-71
2023/05/14 02:00:14;;;;;;;7.47;2.80;;;;;;;;;;8150397;28;20023;-71
2023/05/14 02:04:14;;;;;;;5.88;2.92;;;;;;;;;;8152546;28;21009;-71
2023/05/14 02:08:15;;;;;;;2.92;2.72;;;;;;;;;;8155368;28;20031;-71
2023/05/14 02:12:15;;;;;;;4.03;2.70;;;;;;;;;;8160141;28;20025;-71
2023/05/14 02:16:15;;;;;;;3.50;2.83;;;;;;;;;;8153007;28;20031;-71
2023/05/14 02:20:15;;;;;;;3.90;3.47;;;;;;;;;;8149344;28;20032;-71
2023/05/14 02:24:15;;;;;;;5.35;2.97;;;;;;;;;;8153120;28;20031;-71
2023/05/14 02:28:15;;;;;;;3.95;3.30;;;;;;;;;;8152840;28;20122;-71
2023/05/14 02:32:16;;;;;;;3.55;3.10;;;;;;;;;;8151351;28;20035;-71
2023/05/14 02:36:16;;;;;;;3.13;2.83;;;;;;;;;;8162854;28;20138;-71
2023/05/14 02:40:16;;;;;;;3.30;3.00;;;;;;;;;;8160925;28;20054;-71
2023/05/14 02:44:16;;;;;;;3.15;2.90;;;;;;;;;;8154316;28;20154;-71
2023/05/14 02:48:16;;;;;;;3.03;2.72;;;;;;;;;;8161811;28;20071;-71
2023/05/14 02:52:17;;;;;;;2.58;2.38;;;;;;;;;;8156511;28;20063;-71
2023/05/14 02:56:17;;;;;;;2.95;2.75;;;;;;;;;;8162034;28;20023;-71
2023/05/14 03:00:17;;;;;;;3.00;2.70;;;;;;;;;;8166535;28;20035;-71
2023/05/14 03:04:18;;;;;;;5.70;3.00;;;;;;;;;;8156485;28;20035;-71
2023/05/14 03:08:18;;;;;;;3.63;2.80;;;;;;;;;;8156752;28;20027;-71
2023/05/14 03:12:18;;;;;;;6.30;2.85;;;;;;;;;;8165492;28;20107;-71
2023/05/14 03:16:18;;;;;;;4.13;3.40;;;;;;;;;;8168046;28;20039;-71
2023/05/14 03:20:19;;;;;;;4.03;3.20;;;;;;;;;;8187593;28;20270;-71
2023/05/14 03:24:19;;;;;;;3.58;3.28;;;;;;;;;;8196278;28;20039;-71
2023/05/14 03:28:19;;;;;;;3.45;3.03;;;;;;;;;;8188744;28;20033;-70
2023/05/14 03:32:20;;;;;;;3.47;3.17;;;;;;;;;;8187864;28;20495;-71
2023/05/14 03:36:20;;;;;;;4.40;3.00;;;;;;;;;;8191465;28;20031;-71
2023/05/14 03:40:20;;;;;;;4.70;3.20;;;;;;;;;;8192469;28;20065;-70
2023/05/14 03:44:20;;;;;;;4.35;3.30;;;;;;;;;;8196737;28;20123;-71
2023/05/14 03:48:20;;;;;;;4.22;3.00;;;;;;;;;;8168389;28;20134;-71
2023/05/14 03:52:21;;;;;;;3.92;2.88;;;;;;;;;;8155167;28;20097;-71
2023/05/14 03:56:21;;;;;;;4.03;2.47;;;;;;;;;;8155789;28;20027;-71
2023/05/14 04:00:21;;;;;;;5.40;3.08;;;;;;;;;;8156410;28;20126;-71
2023/05/14 04:04:22;;;;;;;5.93;3.10;;;;;;;;;;8154087;28;20129;-71
2023/05/14 04:08:22;;;;;;;3.05;2.85;;;;;;;;;;8151110;29;20310;-71
2023/05/14 04:12:22;;;;;;;7.07;3.15;;;;;;;;;;8161350;28;20039;-71
2023/05/14 04:16:22;;;;;;;3.70;3.03;;;;;;;;;;8161940;28;20484;-70
2023/05/14 04:20:23;;;;;;;3.83;3.20;;;;;;;;;;8155454;28;20129;-71
2023/05/14 04:24:23;;;;;;;4.93;3.17;;;;;;;;;;8164212;28;20138;-71
2023/05/14 04:28:23;;;;;;;3.38;3.08;;;;;;;;;;8163274;28;20039;-71
2023/05/14 04:32:24;;;;;;;3.35;2.72;;;;;;;;;;8154713;28;20043;-71
2023/05/14 04:36:24;;;;;;;5.15;2.90;;;;;;;;;;8154910;28;20050;-71
2023/05/14 04:40:24;;;;;;;3.20;2.90;;;;;;;;;;8168855;28;20026;-71
2023/05/14 04:44:25;;;;;;;3.67;2.88;;;;;;;;;;8162887;28;20050;-72
2023/05/14 04:48:25;;;;;;;4.57;3.58;;;;;;;;;;8187960;28;20216;-71
2023/05/14 04:52:26;;;;;;;4.30;3.83;;;;;;;;;;8195832;28;20061;-71
2023/05/14 04:56:26;;;;;;;4.90;3.90;;;;;;;;;;8195889;28;20050;-72
2023/05/14 05:00:27;;;;;;;4.22;3.83;;;;;;;;;;8181619;28;21021;-72
2023/05/14 05:04:27;;;;;;;3.53;3.20;;;;;;;;;;8153121;28;20043;-72
2023/05/14 05:08:28;;;;;;;6.22;3.92;;;;;;;;;;8159619;29;20500;-71
2023/05/14 05:12:29;;;;;;;3.87;3.30;;;;;;;;;;8154319;28;20895;-72
2023/05/14 05:16:29;;;;;;;4.78;3.83;;;;;;;;;;8151355;28;20992;-73
2023/05/14 05:20:29;;;;;;;5.03;3.83;;;;;;;;;;8150654;28;20023;-73
2023/05/14 05:24:30;;;;;;;5.38;3.83;;;;;;;;;;8153979;28;20275;-73
2023/05/14 05:28:30;;;;;;;4.10;3.70;;;;;;;;;;8150942;28;20042;-73
2023/05/14 05:32:30;;;;;;;3.60;3.30;;;;;;;;;;8152777;28;20102;-73
2023/05/14 05:36:30;;;;;;;3.50;3.20;;;;;;;;;;8152288;29;21351;-73
2023/05/14 05:40:31;;;;;;;3.50;3.20;;;;;;;;;;8150509;28;20019;-73
2023/05/14 05:44:31;;;;;;;3.33;3.05;;;;;;;;;;8153466;29;20145;-73
2023/05/14 05:48:31;;;;;;;3.75;3.40;;;;;;;;;;8150929;28;20067;-73
2023/05/14 05:52:31;;;;;;;4.50;3.20;;;;;;;;;;8156969;28;20135;-73
2023/05/14 05:56:31;;;;;;;3.33;3.03;;;;;;;;;;8152395;29;20038;-73
2023/05/14 06:00:32;;;;;;;3.28;2.97;;;;;;;;;;8147521;28;20036;-73
2023/05/14 06:04:32;;;;;;;4.65;3.20;;;;;;;;;;8155780;28;20542;-73
2023/05/14 06:08:32;;;;;;;5.00;3.20;;;;;;;;;;8156618;28;20281;-73
2023/05/14 06:12:32;;;;;;;3.42;3.13;;;;;;;;;;8156902;28;20028;-73
2023/05/14 06:16:33;;;;;;;3.55;3.25;;;;;;;;;;8164614;28;20027;-73
2023/05/14 06:20:33;;;;;;;3.78;3.38;;;;;;;;;;8160325;28;20019;-73
2023/05/14 06:24:33;;;;;;;5.90;3.92;;;;;;;;;;8160784;28;20027;-73
2023/05/14 06:28:33;;;;;;;3.83;3.20;;;;;;;;;;8162652;28;20114;-73
2023/05/14 06:32:33;;;;;;;3.60;3.30;;;;;;;;;;8156997;28;20696;-73
2023/05/14 06:36:33;;;;;;;4.53;4.03;;;;;;;;;;8158182;28;20096;-73
2023/05/14 06:40:34;;;;;;;7.97;3.47;;;;;;;;;;8158346;28;20019;-73
2023/05/14 06:44:35;;;;;;;3.72;3.42;;;;;;;;;;8159990;28;20031;-73
2023/05/14 06:48:35;;;;;;;4.22;3.55;;;;;;;;;;8161996;28;20046;-73
2023/05/14 06:52:35;;;;;;;3.65;3.30;;;;;;;;;;8157297;28;20768;-73
2023/05/14 06:56:36;;;;;;;3.83;3.53;;;;;;;;;;8157240;28;20148;-73
2023/05/14 07:00:36;;;;;;;3.60;3.30;;;;;;;;;;8159957;28;20027;-73
2023/05/14 07:04:36;;;;;;;4.53;3.47;;;;;;;;;;8172724;28;20041;-73
2023/05/14 07:08:36;;;;;;;5.40;3.17;;;;;;;;;;8169762;28;20283;-74
2023/05/14 07:12:36;;;;;;;4.65;2.90;;;;;;;;;;8156599;28;20093;-74
2023/05/14 07:16:37;;;;;;;2.80;2.60;;;;;;;;;;8156266;28;20157;-74
2023/05/14 07:20:37;;;;;;;3.22;2.90;;;;;;;;;;8160881;28;20031;-74
2023/05/14 07:24:37;;;;;;;4.32;2.90;;;;;;;;;;8158231;28;20270;-73
2023/05/14 07:28:37;;;;;;;3.10;2.80;;;;;;;;;;8154292;28;20565;-74
2023/05/14 07:32:37;;;;;;;2.95;2.75;;;;;;;;;;8153959;28;20814;-74
2023/05/14 07:36:38;;;;;;;4.65;3.00;;;;;;;;;;8155667;28;20034;-74
2023/05/14 07:40:38;;;;;;;5.33;2.80;;;;;;;;;;8156130;28;20046;-75
2023/05/14 07:44:38;;;;;;;4.15;2.83;;;;;;;;;;8155006;28;20067;-74
2023/05/14 07:48:39;;;;;;;3.30;3.00;;;;;;;;;;8181092;28;20035;-74
2023/05/14 07:52:39;;;;;;;6.47;3.57;;;;;;;;;;8186276;28;20046;-74
2023/05/14 07:56:39;;;;;;;3.00;2.80;;;;;;;;;;8184723;28;20440;-74
2023/05/14 08:00:39;;;;;;;3.05;2.80;;;;;;;;;;8174698;28;20038;-75
2023/05/14 08:04:40;;;;;;;4.00;2.95;;;;;;;;;;8154565;28;20019;-74
2023/05/14 08:08:40;;;;;;;3.10;2.75;;;;;;;;;;8156907;28;20413;-74
2023/05/14 08:12:41;;;;;;;3.00;2.70;;;;;;;;;;8154161;28;20031;-74
2023/05/14 08:16:41;;;;;;;3.00;2.70;;;;;;;;;;8163332;28;20036;-74
2023/05/14 08:20:41;;;;;;;2.78;2.58;;;;;;;;;;8155779;28;20035;-75
2023/05/14 08:24:42;;;;;;;2.80;2.60;;;;;;;;;;8154751;28;20031;-74
2023/05/14 08:28:42;;;;;;;4.35;2.58;;;;;;;;;;8153662;28;20102;-75
2023/05/14 08:32:42;;;;;;;2.60;2.22;;;;;;;;;;8157316;28;20054;-74
2023/05/14 08:36:42;;;;;;;4.63;2.50;;;;;;;;;;8156836;28;20106;-75
2023/05/14 08:40:47;;;;;;;2.50;2.30;;;;;;;;;;8153729;28;20027;-74
2023/05/14 08:44:51;;;;;;;3.17;2.40;;;;;;;;;;8153878;28;20130;-75
2023/05/14 08:48:55;;;;;;;3.83;2.30;;;;;;;;;;8147264;28;20319;-75
2023/05/14 08:52:55;;;;;;;2.13;2.00;;;;;;;;;;8154010;28;20031;-75
2023/05/14 08:56:55;;;;;;;2.47;2.28;;;;;;;;;;8156897;28;20952;-75
2023/05/14 09:00:55;;;;;;;3.30;2.60;;;;;;;;;;8151621;28;20445;-75
2023/05/14 09:04:56;;;;;;;2.67;2.10;;;;;;;;;;8154741;29;20030;-76
2023/05/14 09:08:57;;;;;;;2.20;2.00;;;;;;;;;;8154681;28;20222;-75
2023/05/14 09:12:57;;;;;;;2.30;2.00;;;;;;;;;;8158308;29;20114;-75
2023/05/14 09:16:58;;;;;;;2.50;2.03;;;;;;;;;;8162975;28;20040;-74
2023/05/14 09:20:58;;;;;;;2.60;2.40;;;;;;;;;;8159124;28;20094;-75
2023/05/14 09:25:02;;;;;;;2.83;2.30;;;;;;;;;;8154398;28;20090;-75
2023/05/14 09:29:03;;;;;;;2.53;2.33;;;;;;;;;;8151553;28;20035;-74
2023/05/14 09:33:03;;;;;;;2.13;2.03;;;;;;;;;;8156100;28;20050;-75
2023/05/14 09:37:05;;;;;;;3.38;2.08;;;;;;;;;;8151548;28;20278;-75
2023/05/14 09:41:05;;;;;;;2.43;2.23;;;;;;;;;;8150030;28;20015;-74
2023/05/14 09:45:06;;;;;;;3.17;2.00;;;;;;;;;;8149761;28;20297;-75
2023/05/14 09:49:06;;;;;;;4.03;2.00;;;;;;;;;;8151179;28;20027;-74
2023/05/14 09:53:07;;;;;;;2.22;1.92;;;;;;;;;;8171092;28;20031;-75
2023/05/14 09:57:07;;;;;;;2.10;2.00;;;;;;;;;;8166123;28;20038;-74
2023/05/14 10:01:07;;;;;;;1.83;1.73;;;;;;;;;;8169274;28;20496;-74
2023/05/14 10:05:08;;;;;;;1.73;1.60;;;;;;;;;;8173339;28;20039;-75
2023/05/14 10:09:10;;;;;;;1.90;1.80;;;;;;;;;;8157886;28;20030;-75
2023/05/14 10:13:13;;;;;;;2.20;2.00;;;;;;;;;;8157537;28;20031;-75
2023/05/14 10:17:17;;;;;;;4.63;2.28;;;;;;;;;;8155497;28;20790;-75
2023/05/14 10:21:19;;;;;;;2.78;2.10;;;;;;;;;;8157941;29;20063;-75
2023/05/14 10:25:20;;;;;;;2.42;1.70;;;;;;;;;;8156339;28;20034;-74
2023/05/14 10:29:30;;;;;;;1.80;1.70;;;;;;;;;;8155109;29;20023;-75
2023/05/14 10:33:44;;;;;;;2.45;1.75;;;;;;;;;;8155645;28;20117;-75
2023/05/14 10:37:45;;;;;;;1.92;1.60;;;;;;;;;;8155774;28;20027;-74
2023/05/14 10:41:46;;;;;;;2.30;1.92;;;;;;;;;;8161049;29;20030;-74
2023/05/14 10:45:46;;;;;;;2.53;2.00;;;;;;;;;;8158663;28;20027;-74
2023/05/14 10:49:51;;;;;;;2.28;2.08;;;;;;;;;;8156785;28;20722;-74
2023/05/14 10:53:52;;;;;;;3.58;1.90;;;;;;;;;;8156159;28;20741;-75
2023/05/14 10:57:52;;;;;;;1.98;1.88;;;;;;;;;;8162948;28;20016;-74
2023/05/14 11:01:52;;;;;;;3.28;2.10;;;;;;;;;;8170516;28;20043;-74
2023/05/14 11:05:53;;;;;;;2.10;1.90;;;;;;;;;;8153445;28;20774;-74
2023/05/14 11:09:58;;;;;;;2.15;1.95;;;;;;;;;;8165723;29;20058;-74
2023/05/14 11:13:58;;;;;;;2.33;2.13;;;;;;;;;;8176535;28;20027;-73
2023/05/14 11:17:58;;;;;;;2.47;1.85;;;;;;;;;;8155051;28;20432;-75
2023/05/14 11:22:00;;;;;;;2.40;2.20;;;;;;;;;;8156283;28;20027;-74
2023/05/14 11:26:00;;;;;;;2.50;2.30;;;;;;;;;;8161232;28;20027;-74
2023/05/14 11:30:01;;;;;;;2.20;2.00;;;;;;;;;;8157298;29;20031;-74
2023/05/14 11:34:03;;;;;;;2.47;2.10;;;;;;;;;;8160960;28;20038;-74
2023/05/14 11:38:03;;;;;;;2.20;2.00;;;;;;;;;;8161735;29;20661;-74
2023/05/14 11:42:15;;;;;;;3.00;2.03;;;;;;;;;;8153126;28;20027;-74
2023/05/14 11:46:16;;;;;;;4.10;2.05;;;;;;;;;;8153338;28;20045;-74
2023/05/14 11:50:16;;;;;;;2.17;2.08;;;;;;;;;;8154317;28;20421;-75
2023/05/14 11:54:17;;;;;;;2.47;2.10;;;;;;;;;;8154450;28;20027;-75
2023/05/14 11:58:17;;;;;;;1.90;1.80;;;;;;;;;;8154288;28;20015;-74
2023/05/14 12:02:18;;;;;;;2.25;2.10;;;;;;;;;;8173299;28;20043;-74
2023/05/14 12:06:18;;;;;;;2.83;2.22;;;;;;;;;;8186054;28;20042;-75
2023/05/14 12:10:19;;;;;;;2.70;2.50;;;;;;;;;;8201911;28;20026;-74
2023/05/14 12:14:20;;;;;;;2.10;2.00;;;;;;;;;;8187815;28;20041;-75
2023/05/14 12:18:20;;;;;;;2.28;2.08;;;;;;;;;;8186240;28;20978;-75
2023/05/14 12:22:21;;;;;;;2.97;2.60;;;;;;;;;;8186099;28;20129;-74
2023/05/14 12:26:21;;;;;;;2.55;2.20;;;;;;;;;;8184859;28;20846;-74
2023/05/14 12:30:21;;;;;;;2.50;2.30;;;;;;;;;;8194215;28;20542;-75
2023/05/14 12:34:21;;;;;;;2.42;2.22;;;;;;;;;;8189034;28;20038;-74
2023/05/14 12:38:21;;;;;;;2.55;2.35;;;;;;;;;;8184471;28;20018;-74
2023/05/14 12:42:21;;;;;;;2.50;2.25;;;;;;;;;;8186208;28;20042;-75
2023/05/14 12:46:22;;;;;;;2.47;2.28;;;;;;;;;;8175123;28;20126;-74
2023/05/14 12:50:22;;;;;;;3.33;2.70;;;;;;;;;;8161520;28;20118;-74
2023/05/14 12:54:22;;;;;;;2.53;2.33;;;;;;;;;;8156194;28;20429;-74
2023/05/14 12:58:22;;;;;;;2.97;2.38;;;;;;;;;;8154481;28;20034;-74
2023/05/14 13:02:23;;;;;;;2.80;2.00;;;;;;;;;;8157778;28;20027;-74
2023/05/14 13:06:23;;;;;;;2.08;1.98;;;;;;;;;;8152747;28;20168;-74
2023/05/14 13:10:23;;;;;;;1.77;1.67;;;;;;;;;;8151494;28;20081;-75
2023/05/14 13:14:23;;;;;;;3.97;2.15;;;;;;;;;;8154591;28;20030;-74
2023/05/14 13:18:25;;;;;;;2.28;2.10;;;;;;;;;;8158584;28;20031;-74
2023/05/14 13:22:25;;;;;;;1.80;1.70;;;;;;;;;;8155934;28;20046;-75
2023/05/14 13:26:27;;;;;;;1.87;1.77;;;;;;;;;;8155439;28;20031;-75
2023/05/14 13:30:27;;;;;;;2.33;1.80;;;;;;;;;;8150537;28;21026;-75
2023/05/14 13:34:27;;;;;;;1.87;1.70;;;;;;;;;;8155223;28;20471;-75
2023/05/14 13:38:28;;;;;;;2.13;1.70;;;;;;;;;;8161898;28;20054;-74
2023/05/14 13:42:28;;;;;;;2.17;1.95;;;;;;;;;;8154200;28;20031;-75
2023/05/14 13:46:28;;;;;;;2.17;1.88;;;;;;;;;;8155377;28;20059;-74
2023/05/14 13:50:28;;;;;;;2.47;1.80;;;;;;;;;;8154511;28;20170;-75
2023/05/14 13:54:28;;;;;;;2.00;1.85;;;;;;;;;;8153994;28;20035;-74
2023/05/14 13:58:28;;;;;;;1.92;1.63;;;;;;;;;;8152859;28;20137;-75
2023/05/14 14:02:29;;;;;;;2.33;1.80;;;;;;;;;;8156030;28;20043;-75
2023/05/14 14:06:30;;;;;;;1.83;1.60;;;;;;;;;;8157901;28;20039;-75
2023/05/14 14:10:31;;;;;;;2.05;1.80;;;;;;;;;;8153818;28;20027;-75
2023/05/14 14:14:31;;;;;;;2.78;1.40;;;;;;;;;;8153229;28;20955;-75
2023/05/14 14:18:31;;;;;;;1.50;1.40;;;;;;;;;;8154391;28;20046;-74
2023/05/14 14:22:31;;;;;;;1.60;1.50;;;;;;;;;;8162411;28;20035;-75
2023/05/14 14:26:31;;;;;;;2.90;1.43;;;;;;;;;;8154562;28;20893;-74
2023/05/14 14:30:32;;;;;;;1.45;1.35;;;;;;;;;;8151252;28;20290;-74
2023/05/14 14:34:32;;;;;;;1.52;1.42;;;;;;;;;;8154387;28;20134;-75
2023/05/14 14:38:32;;;;;;;2.17;1.30;;;;;;;;;;8161800;28;20034;-74
2023/05/14 14:42:33;;;;;;;2.03;1.40;;;;;;;;;;8169913;28;21171;-74
2023/05/14 14:46:33;;;;;;;1.15;1.15;;;;;;;;;;8156473;28;20594;-75
2023/05/14 14:50:33;;;;;;;1.37;1.20;;;;;;;;;;8153581;28;20030;-75
2023/05/14 14:54:34;;;;;;;1.48;1.38;;;;;;;;;;8158975;28;20081;-75
2023/05/14 14:58:34;;;;;;;1.60;1.50;;;;;;;;;;8157075;28;20401;-75
2023/05/14 15:02:37;;;;;;;1.60;1.50;;;;;;;;;;8156300;28;20035;-75
2023/05/14 15:06:37;;;;;;;1.60;1.50;;;;;;;;;;8158651;28;20101;-74
2023/05/14 15:10:37;;;;;;;1.45;1.35;;;;;;;;;;8156488;28;20094;-75
2023/05/14 15:14:37;;;;;;;4.40;1.50;;;;;;;;;;8161025;28;20369;-75
2023/05/14 15:18:37;;;;;;;1.40;1.30;;;;;;;;;;8156305;28;20035;-75
2023/05/14 15:22:37;;;;;;;2.22;1.33;;;;;;;;;;8156639;28;20086;-75
2023/05/14 15:26:38;;;;;;;3.67;1.50;;;;;;;;;;8168678;28;20027;-75
2023/05/14 15:30:38;;;;;;;1.83;1.50;;;;;;;;;;8159146;28;20043;-74
2023/05/14 15:34:38;;;;;;;1.52;1.42;;;;;;;;;;8160892;28;20090;-75
2023/05/14 15:38:39;;;;;;;1.30;1.27;;;;;;;;;;8155548;28;20027;-74
2023/05/14 15:42:40;;;;;;;2.17;1.30;;;;;;;;;;8155287;28;20027;-75
2023/05/14 15:46:41;;;;;;;2.08;1.40;;;;;;;;;;8156066;28;20042;-75
2023/05/14 15:50:41;;;;;;;1.50;1.38;;;;;;;;;;8158159;28;20062;-75
2023/05/14 15:54:41;;;;;;;1.52;1.42;;;;;;;;;;8162376;28;20027;-75
2023/05/14 15:58:41;;;;;;;1.80;1.40;;;;;;;;;;8154613;28;20027;-74
2023/05/14 16:02:41;;;;;;;1.48;1.38;;;;;;;;;;8157678;28;20035;-74
2023/05/14 16:06:43;;;;;;;1.60;1.50;;;;;;;;;;8158352;28;20381;-74
2023/05/14 16:10:43;;;;;;;1.60;1.50;;;;;;;;;;8154675;28;20566;-74
2023/05/14 16:14:44;;;;;;;1.50;1.40;;;;;;;;;;8156028;28;20027;-75
2023/05/14 16:18:44;;;;;;;1.55;1.45;;;;;;;;;;8185760;28;20069;-75
2023/05/14 16:22:44;;;;;;;1.45;1.35;;;;;;;;;;8186648;28;20090;-74
2023/05/14 16:26:44;;;;;;;1.53;1.43;;;;;;;;;;8186472;28;20129;-74
2023/05/14 16:30:45;;;;;;;1.52;1.42;;;;;;;;;;8185916;28;20066;-74
2023/05/14 16:34:48;;;;;;;1.50;1.40;;;;;;;;;;8190975;28;20149;-74
2023/05/14 16:38:48;;;;;;;1.60;1.50;;;;;;;;;;8195480;28;20623;-74
2023/05/14 16:42:48;;;;;;;1.30;1.30;;;;;;;;;;8197822;28;20046;-74
2023/05/14 16:46:49;;;;;;;1.48;1.30;;;;;;;;;;8177702;28;20034;-74
2023/05/14 16:50:51;;;;;;;1.48;1.38;;;;;;;;;;8156489;28;20050;-74
2023/05/14 16:54:51;;;;;;;2.00;1.40;;;;;;;;;;8156712;29;20023;-74
2023/05/14 16:58:51;;;;;;;1.83;1.27;;;;;;;;;;8154196;28;20035;-75
2023/05/14 17:02:52;;;;;;;2.85;1.40;;;;;;;;;;8159113;28;20046;-74
2023/05/14 17:06:53;;;;;;;1.20;1.20;;;;;;;;;;8166607;28;20027;-74
2023/05/14 17:10:53;;;;;;;1.67;1.47;;;;;;;;;;8156718;28;20019;-74
2023/05/14 17:14:53;;;;;;;1.48;1.38;;;;;;;;;;8154660;28;20286;-75
2023/05/14 17:18:53;;;;;;;1.50;1.40;;;;;;;;;;8167217;28;20931;-74
2023/05/14 17:22:54;;;;;;;1.20;1.20;;;;;;;;;;8158170;28;20031;-74
2023/05/14 17:26:54;;;;;;;1.65;1.23;;;;;;;;;;8165610;28;20082;-74
2023/05/14 17:30:55;;;;;;;3.07;1.37;;;;;;;;;;8145724;28;20039;-74
2023/05/14 17:34:55;;;;;;;1.50;1.40;;;;;;;;;;8150489;28;20074;-74
2023/05/14 17:38:55;;;;;;;1.40;1.30;;;;;;;;;;8150027;28;20023;-74
2023/05/14 17:42:56;;;;;;;2.13;1.30;;;;;;;;;;8148783;28;20721;-74
2023/05/14 17:46:56;;;;;;;1.38;1.30;;;;;;;;;;8148174;28;20039;-74
2023/05/14 17:50:56;;;;;;;1.83;1.20;;;;;;;;;;8151259;29;20263;-74
2023/05/14 17:54:56;;;;;;;2.20;1.40;;;;;;;;;;8148295;28;20082;-74
2023/05/14 17:58:56;;;;;;;5.03;1.20;;;;;;;;;;8149531;29;20023;-73
2023/05/14 18:02:57;;;;;;;1.40;1.30;;;;;;;;;;8148707;28;20023;-74
2023/05/14 18:06:57;;;;;;;1.25;1.20;;;;;;;;;;8170498;28;20027;-73
2023/05/14 18:10:59;;;;;;;1.23;1.10;;;;;;;;;;8150706;28;20040;-73
2023/05/14 18:14:59;;;;;;;3.10;1.13;;;;;;;;;;8151927;29;20158;-73
2023/05/14 18:19:00;;;;;;;1.53;1.07;;;;;;;;;;8152465;28;20106;-74
2023/05/14 18:23:00;;;;;;;1.17;1.08;;;;;;;;;;8154518;29;20042;-73
2023/05/14 18:27:00;;;;;;;3.20;1.33;;;;;;;;;;8154690;29;21054;-73
2023/05/14 18:31:02;;;;;;;1.63;1.10;;;;;;;;;;8166768;28;20990;-74
2023/05/14 18:35:03;;;;;;;1.58;1.10;;;;;;;;;;8153224;28;20282;-73
2023/05/14 18:39:03;;;;;;;1.60;1.40;;;;;;;;;;8150888;28;20050;-73
2023/05/14 18:43:03;;;;;;;2.05;1.20;;;;;;;;;;8152696;28;20680;-72
2023/05/14 18:47:04;;;;;;;3.57;1.20;;;;;;;;;;8152556;28;20409;-72
2023/05/14 18:51:05;;;;;;;2.33;1.45;;;;;;;;;;8158059;28;20656;-73
2023/05/14 18:55:06;;;;;;;4.93;1.52;;;;;;;;;;8156808;29;20027;-74
2023/05/14 18:59:06;;;;;;;1.75;1.50;;;;;;;;;;8150855;28;20179;-74
2023/05/14 19:03:06;;;;;;;1.65;1.48;;;;;;;;;;8154219;28;20040;-73
2023/05/14 19:07:07;;;;;;;1.50;1.40;;;;;;;;;;8151438;28;20472;-73
2023/05/14 19:11:07;;;;;;;1.93;1.30;;;;;;;;;;8159520;28;20114;-73
2023/05/14 19:15:07;;;;;;;1.20;1.10;;;;;;;;;;8164812;28;20050;-74
2023/05/14 19:19:07;;;;;;;1.80;1.20;;;;;;;;;;8153774;28;20500;-74
2023/05/14 19:23:08;;;;;;;2.05;1.30;;;;;;;;;;8153987;28;20027;-74
2023/05/14 19:27:08;;;;;;;1.20;1.08;;;;;;;;;;8158587;28;20058;-74
2023/05/14 19:31:09;;;;;;;2.42;1.08;;;;;;;;;;8162678;28;20050;-74
2023/05/14 19:35:10;;;;;;;2.60;1.20;;;;;;;;;;8185329;28;20041;-74
2023/05/14 19:39:10;;;;;;;1.80;1.00;;;;;;;;;;8180938;28;20506;-74
2023/05/14 19:43:11;;;;;;;1.80;1.13;;;;;;;;;;8187374;28;20057;-75
2023/05/14 19:47:11;;;;;;;2.63;1.40;;;;;;;;;;8165247;28;20349;-73
2023/05/14 19:51:12;;;;;;;2.65;1.50;;;;;;;;;;8149325;28;20034;-71
2023/05/14 19:55:12;;;;;;;1.20;1.15;;;;;;;;;;8149208;28;21079;-72
2023/05/14 19:59:12;;;;;;;3.10;1.43;;;;;;;;;;8154583;28;20126;-72
2023/05/14 20:03:12;;;;;;;2.60;1.70;;;;;;;;;;8188152;28;20290;-72
2023/05/14 20:07:14;;;;;;;5.72;2.20;;;;;;;;;;8186179;28;20736;-72
2023/05/14 20:11:16;;;;;;;2.40;1.63;;;;;;;;;;8190488;28;20074;-72
2023/05/14 20:15:17;;;;;;;2.33;1.50;;;;;;;;;;8186635;28;20061;-72
2023/05/14 20:19:18;;;;;;;1.85;1.10;;;;;;;;;;8184555;28;20681;-72
2023/05/14 20:23:19;;;;;;;1.20;1.10;;;;;;;;;;8185603;28;20035;-72
2023/05/14 20:27:20;;;;;;;4.70;1.10;;;;;;;;;;8186835;28;20034;-72
2023/05/14 20:31:20;;;;;;;1.85;1.00;;;;;;;;;;8182364;28;20496;-72
2023/05/14 20:35:20;;;;;;;1.38;1.00;;;;;;;;;;8191210;28;20703;-72
2023/05/14 20:39:21;;;;;;;0.90;0.90;;;;;;;;;;8183306;28;20030;-72
2023/05/14 20:43:21;;;;;;;1.60;1.02;;;;;;;;;;8188973;28;20035;-72
2023/05/14 20:47:23;;;;;;;1.20;1.15;;;;;;;;;;8182249;28;20039;-72
2023/05/14 20:51:23;;;;;;;1.10;1.00;;;;;;;;;;8181759;28;20038;-72
2023/05/14 20:55:23;;;;;;;1.67;1.13;;;;;;;;;;8196759;28;20027;-72
2023/05/14 20:59:23;;;;;;;1.70;1.00;;;;;;;;;;8179949;28;20026;-72
2023/05/14 21:03:24;;;;;;;2.75;1.30;;;;;;;;;;8157484;28;20039;-72
2023/05/14 21:07:24;;;;;;;3.37;1.57;;;;;;;;;;8154237;29;21025;-73
2023/05/14 21:11:24;;;;;;;2.83;1.40;;;;;;;;;;8153251;28;20869;-72
2023/05/14 21:15:25;;;;;;;2.15;1.30;;;;;;;;;;8151986;28;20071;-72
2023/05/14 21:19:26;;;;;;;1.23;1.13;;;;;;;;;;8154833;28;20078;-72
2023/05/14 21:23:26;;;;;;;1.45;1.20;;;;;;;;;;8151396;29;20955;-72
2023/05/14 21:27:26;;;;;;;1.35;1.15;;;;;;;;;;8152727;28;20860;-72
2023/05/14 21:31:26;;;;;;;1.40;1.30;;;;;;;;;;8154995;28;20093;-72
2023/05/14 21:35:26;;;;;;;6.60;2.85;;;;;;;;;;8153562;29;20801;-72
2023/05/14 21:39:27;;;;;;;3.30;1.97;;;;;;;;;;8153071;28;20039;-72
2023/05/14 21:43:27;;;;;;;1.75;1.60;;;;;;;;;;8157568;28;20282;-72
2023/05/14 21:47:27;;;;;;;3.78;1.42;;;;;;;;;;8155346;28;20035;-72
2023/05/14 21:51:27;;;;;;;3.60;2.30;;;;;;;;;;8159687;28;20035;-72
2023/05/14 21:55:27;;;;;;;5.65;2.90;;;;;;;;;;8158722;28;20705;-72
2023/05/14 21:59:28;;;;;;;3.63;2.60;;;;;;;;;;8158352;29;20029;-72
2023/05/14 22:03:28;;;;;;;5.60;2.40;;;;;;;;;;8157339;28;21118;-72
2023/05/14 22:07:28;;;;;;;4.45;3.28;;;;;;;;;;8156625;28;20036;-72
2023/05/14 22:11:28;;;;;;;1.60;1.50;;;;;;;;;;8159219;28;20711;-72
2023/05/14 22:15:28;;;;;;;1.77;1.33;;;;;;;;;;8159914;28;20170;-73
2023/05/14 22:19:29;;;;;;;3.42;1.63;;;;;;;;;;8162416;28;20754;-72
2023/05/14 22:23:29;;;;;;;1.88;1.77;;;;;;;;;;8156906;28;20230;-72
2023/05/14 22:27:30;;;;;;;3.13;2.10;;;;;;;;;;8157650;28;20043;-72
2023/05/14 22:31:30;;;;;;;2.38;2.17;;;;;;;;;;8172732;28;20474;-72
2023/05/14 22:35:30;;;;;;;2.70;1.48;;;;;;;;;;8190735;28;21575;-72
2023/05/14 22:39:30;;;;;;;1.65;1.40;;;;;;;;;;8194254;28;20031;-72
2023/05/14 22:43:30;;;;;;;3.90;1.67;;;;;;;;;;8187954;28;20043;-72
2023/05/14 22:47:30;;;;;;;1.67;1.52;;;;;;;;;;8168545;28;20051;-73
2023/05/14 22:51:31;;;;;;;2.03;1.40;;;;;;;;;;8159987;28;20039;-72
2023/05/14 22:55:32;;;;;;;1.60;1.50;;;;;;;;;;8177937;28;20027;-72
2023/05/14 22:59:32;;;;;;;1.40;1.30;;;;;;;;;;8154534;28;20956;-72
2023/05/14 23:03:32;;;;;;;1.88;1.42;;;;;;;;;;8156480;28;20042;-72
2023/05/14 23:07:32;;;;;;;1.45;1.30;;;;;;;;;;8159535;28;20098;-72
2023/05/14 23:11:32;;;;;;;3.95;1.48;;;;;;;;;;8156983;28;20041;-72
2023/05/14 23:15:33;;;;;;;3.80;1.65;;;;;;;;;;8153483;28;20051;-72
2023/05/14 23:19:33;;;;;;;3.00;1.58;;;;;;;;;;8155894;28;20023;-72
2023/05/14 23:23:33;;;;;;;1.60;1.50;;;;;;;;;;8162698;29;20950;-73
2023/05/14 23:27:34;;;;;;;1.42;1.33;;;;;;;;;;8156737;28;20047;-72
2023/05/14 23:31:34;;;;;;;1.42;1.33;;;;;;;;;;8163439;28;20059;-72
2023/05/14 23:35:36;;;;;;;4.50;1.50;;;;;;;;;;8156528;28;20588;-72
2023/05/14 23:39:36;;;;;;;1.60;1.50;;;;;;;;;;8146397;28;20470;-72
2023/05/14 23:43:36;;;;;;;1.60;1.50;;;;;;;;;;8157180;28;20065;-72
2023/05/14 23:47:36;;;;;;;1.48;1.38;;;;;;;;;;8154310;28;20592;-72
2023/05/14 23:51:37;;;;;;;1.92;1.52;;;;;;;;;;8157402;28;20043;-72
2023/05/14 23:55:37;;;;;;;2.20;1.70;;;;;;;;;;8155102;28;20030;-72
2023/05/14 23:59:38;;;;;;;1.65;1.50;;;;;;;;;;8153036;28;20197;-73
